Cosco Melbourne — V7IF5 — position and weather

sailwx.info

Track history (hours):
 
Tides and Currents Weather Stations Pressure Air Temp Water Temp Dewpoint Dewpoint Depression Visibility Wind Speed Wind Dir Waves Ship Positions

Cosco Melbourne

Last reported at 2016-Sep-27 23:33 UTC. Time now 2016-Sep-29 23:56 UTC.
Position N 38°18' E 121°32'.

Type: Ship (hazmat cat A). MMSI: 538002366.

Date/timePositionNaut miles runAvg speedWind from/ knotsBaromVisibWave heightAir tempDewpointWater temp
2016-Sep-27 23:33N 38°18' E 121°32'180 6.4
2016-Sep-26 19:17N 38°60' E 117°47'0 0.0
2016-Sep-26 15:27N 38°60' E 117°47'0 0.0
2016-Sep-26 13:29N 38°60' E 117°47'152 9.5
2016-Sep-25 21:33N 38°35' E 120°59'51 2.9
2016-Sep-25 04:15N 38°56' E 121°58'13 2.3
2016-Sep-24 22:34N 38°44' E 122°03'11 9.8
2016-Sep-24 21:27N 38°35' E 122°11'2110.9
2016-Sep-24 19:30N 38°23' E 122°34'2211.0
2016-Sep-24 17:31N 38°12' E 122°58'1111.2
2016-Sep-24 16:34N 38°06' E 123°09'4410.8
2016-Sep-24 12:31N 37°42' E 123°56'  
Track history (hours):
 
Tides and Currents Weather Stations Pressure Air Temp Water Temp Dewpoint Dewpoint Depression Visibility Wind Speed Wind Dir Waves Ship Positions

Cosco Melbourne

Last reported at 2016-Sep-27 23:33 UTC. Time now 2016-Sep-29 23:56 UTC.
Position N 38°18' E 121°32'.

Type: Ship (hazmat cat A). MMSI: 538002366.

Date/timePositionNaut miles runAvg speedWind from/ knotsBaromVisibWave heightAir tempDewpointWater temp
2016-Sep-27 23:33N 38°18' E 121°32'180 6.4
2016-Sep-26 19:17N 38°60' E 117°47'0 0.0
2016-Sep-26 15:27N 38°60' E 117°47'0 0.0
2016-Sep-26 13:29N 38°60' E 117°47'152 9.5
2016-Sep-25 21:33N 38°35' E 120°59'51 2.9
2016-Sep-25 04:15N 38°56' E 121°58'13 2.3
2016-Sep-24 22:34N 38°44' E 122°03'11 9.8
2016-Sep-24 21:27N 38°35' E 122°11'2110.9
2016-Sep-24 19:30N 38°23' E 122°34'2211.0
2016-Sep-24 17:31N 38°12' E 122°58'1111.2
2016-Sep-24 16:34N 38°06' E 123°09'4410.8
2016-Sep-24 12:31N 37°42' E 123°56'  

Dump ship's entire track history